Time;durP1;ratioP1;P1;durP2;ratioP2;P2;SDS_P1;SDS_P2;PMS_P1;PMS_P2;Temp;Humidity;BMP_temperature;BMP_pressure;BME280_temperature;BME280_humidity;BME280_pressure;Samples;Min_cycle;Max_cycle;Signal;HPM_P1;HPM_P2
2021/08/24 00:02:12;;;;;;;3.75;2.67;;;26.80;49.30;;;;;;4953396;29;20041;-50
2021/08/24 00:04:38;;;;;;;4.18;2.65;;;26.80;49.30;;;;;;4953905;29;20071;-50
2021/08/24 00:07:04;;;;;;;2.67;2.10;;;26.80;49.40;;;;;;4953303;29;20027;-50
2021/08/24 00:09:30;;;;;;;2.95;2.40;;;26.80;49.40;;;;;;4953868;29;20472;-48
2021/08/24 00:11:56;;;;;;;4.88;2.63;;;26.80;49.40;;;;;;4952174;29;20031;-50
2021/08/24 00:14:21;;;;;;;6.03;2.45;;;26.80;49.40;;;;;;4953975;29;20035;-47
2021/08/24 00:16:47;;;;;;;2.80;2.20;;;26.80;49.40;;;;;;4953945;29;20389;-47
2021/08/24 00:19:13;;;;;;;3.53;2.40;;;26.80;49.50;;;;;;4953282;29;20465;-50
2021/08/24 00:21:39;;;;;;;3.00;2.50;;;26.80;49.50;;;;;;4953866;29;20093;-48
2021/08/24 00:24:06;;;;;;;3.65;2.40;;;26.80;49.50;;;;;;4952170;29;20556;-50
2021/08/24 00:26:32;;;;;;;3.38;2.30;;;26.80;49.50;;;;;;4952676;29;20028;-47
2021/08/24 00:28:58;;;;;;;3.00;2.25;;;26.80;49.50;;;;;;4953209;29;20370;-48
2021/08/24 00:31:24;;;;;;;2.95;2.30;;;26.70;49.50;;;;;;4952648;29;20042;-47
2021/08/24 00:33:50;;;;;;;3.10;2.42;;;26.70;49.50;;;;;;4953570;29;20066;-48
2021/08/24 00:39:02;;;;;;;2.72;2.20;;;26.70;49.50;;;;;;4953524;29;20026;-46
2021/08/24 00:41:28;;;;;;;2.95;2.47;;;26.70;49.50;;;;;;4954296;28;20396;-49
2021/08/24 00:43:55;;;;;;;4.50;2.40;;;26.70;49.60;;;;;;4956713;29;20028;-49
2021/08/24 00:46:29;;;;;;;3.05;2.22;;;26.70;49.60;;;;;;4956325;29;20023;-48
2021/08/24 00:48:59;;;;;;;4.80;2.22;;;26.70;49.70;;;;;;4956726;29;20063;-49
2021/08/24 00:51:27;;;;;;;4.43;1.85;;;26.70;49.70;;;;;;4956873;29;20388;-50
2021/08/24 00:54:13;;;;;;;2.97;2.05;;;26.60;49.70;;;;;;4957323;29;20086;-51
2021/08/24 00:56:41;;;;;;;3.97;2.30;;;26.60;49.80;;;;;;4957392;29;20485;-53
2021/08/24 00:59:07;;;;;;;3.67;2.25;;;26.70;49.80;;;;;;4956549;29;20034;-53
2021/08/24 01:01:34;;;;;;;5.57;2.05;;;26.60;49.80;;;;;;4957453;29;20473;-48
2021/08/24 01:04:00;;;;;;;4.47;1.88;;;26.70;49.90;;;;;;4956678;29;20046;-48
2021/08/24 01:06:33;;;;;;;3.17;1.77;;;26.60;49.80;;;;;;4957025;29;20035;-50
2021/08/24 01:09:09;;;;;;;2.40;1.60;;;26.60;49.80;;;;;;4955253;29;20106;-50
2021/08/24 01:11:59;;;;;;;1.95;1.52;;;26.60;49.90;;;;;;4956714;29;20374;-48
2021/08/24 01:14:50;;;;;;;2.15;1.52;;;26.50;49.90;;;;;;4955639;29;20030;-46
2021/08/24 01:20:43;;;;;;;3.22;1.73;;;26.50;49.90;;;;;;4956161;29;20113;-46
2021/08/24 01:23:20;;;;;;;1.92;1.50;;;26.50;50.00;;;;;;4956104;29;20030;-47
2021/08/24 01:26:04;;;;;;;2.75;1.60;;;26.60;50.00;;;;;;4955446;29;20487;-45
2021/08/24 01:28:37;;;;;;;1.98;1.40;;;26.50;50.10;;;;;;4956373;29;20090;-50
2021/08/24 01:31:15;;;;;;;1.90;1.45;;;26.50;50.00;;;;;;4956147;29;20039;-50
2021/08/24 01:34:02;;;;;;;2.63;1.60;;;26.50;50.00;;;;;;4956732;29;20028;-49
2021/08/24 01:36:58;;;;;;;2.78;1.50;;;26.50;50.20;;;;;;4956318;29;20038;-46
2021/08/24 01:39:49;;;;;;;1.95;1.63;;;26.50;50.20;;;;;;4952814;29;20045;-48
2021/08/24 01:42:17;;;;;;;2.78;1.80;;;26.60;50.20;;;;;;4953669;29;20047;-50
2021/08/24 01:45:13;;;;;;;2.53;1.90;;;26.60;50.20;;;;;;4956537;29;20126;-49
2021/08/24 01:48:04;;;;;;;2.00;1.58;;;26.50;50.30;;;;;;4956378;29;20031;-48
2021/08/24 01:50:51;;;;;;;4.25;1.98;;;26.50;51.00;;;;;;4956371;29;20031;-52
2021/08/24 01:53:29;;;;;;;2.40;1.70;;;26.50;50.30;;;;;;4954284;28;20034;-46
2021/08/24 01:56:03;;;;;;;3.45;1.60;;;26.50;50.30;;;;;;4956253;29;20051;-48
2021/08/24 01:58:40;;;;;;;1.60;1.30;;;26.50;50.30;;;;;;4955032;29;20023;-45
2021/08/24 02:01:08;;;;;;;1.85;1.60;;;26.50;50.40;;;;;;4955234;29;20031;-51
2021/08/24 02:03:42;;;;;;;2.22;1.52;;;26.50;50.30;;;;;;4954817;29;20473;-48
2021/08/24 02:06:13;;;;;;;2.50;1.52;;;26.40;50.30;;;;;;4955664;29;20023;-49
2021/08/24 02:08:43;;;;;;;2.22;1.85;;;26.50;50.40;;;;;;4955701;29;20024;-47
2021/08/24 02:11:10;;;;;;;2.35;1.60;;;26.50;50.30;;;;;;4955421;29;20027;-50
2021/08/24 02:13:43;;;;;;;5.45;1.77;;;26.50;50.30;;;;;;4954419;29;20058;-47
2021/08/24 02:16:12;;;;;;;1.98;1.50;;;26.50;50.30;;;;;;4955180;29;20035;-52
2021/08/24 02:18:43;;;;;;;2.53;1.80;;;26.50;50.30;;;;;;4955777;29;20024;-45
2021/08/24 02:21:15;;;;;;;3.63;1.80;;;26.50;50.30;;;;;;4954871;29;20106;-48
2021/08/24 02:23:45;;;;;;;2.95;1.70;;;26.50;50.30;;;;;;4954465;29;20105;-47
2021/08/24 02:26:12;;;;;;;3.50;1.75;;;26.50;50.30;;;;;;4955387;29;20031;-52
2021/08/24 02:28:47;;;;;;;2.38;1.85;;;26.50;50.30;;;;;;4955483;29;20074;-52
2021/08/24 02:31:24;;;;;;;2.70;1.60;;;26.40;50.30;;;;;;4953756;29;20384;-49
2021/08/24 02:34:02;;;;;;;2.75;1.80;;;26.50;50.40;;;;;;4955252;29;20027;-48
2021/08/24 02:36:47;;;;;;;1.85;1.42;;;26.40;50.30;;;;;;4955430;29;20027;-49
2021/08/24 02:39:18;;;;;;;2.80;1.48;;;26.40;50.30;;;;;;4953731;29;20366;-51
2021/08/24 02:42:05;;;;;;;1.70;1.52;;;26.50;50.30;;;;;;4954996;29;20027;-46
2021/08/24 02:44:38;;;;;;;1.77;1.40;;;26.40;50.40;;;;;;4955568;29;20046;-45
2021/08/24 02:47:05;;;;;;;;;;;26.40;50.20;;;;;;4953929;29;20119;-45
2021/08/24 02:49:32;;;;;;;1.95;1.50;;;26.60;50.30;;;;;;4955174;29;19907;-45
2021/08/24 02:52:03;;;;;;;3.03;1.60;;;26.50;50.20;;;;;;4953697;29;20485;-44
2021/08/24 02:54:35;;;;;;;2.55;1.67;;;26.50;50.30;;;;;;4954663;29;20043;-50
2021/08/24 02:57:01;;;;;;;3.60;1.50;;;26.40;50.30;;;;;;4955235;29;20125;-45
2021/08/24 02:59:30;;;;;;;2.10;1.52;;;26.40;50.30;;;;;;4954388;29;20027;-49
2021/08/24 03:01:56;;;;;;;2.10;1.48;;;26.40;50.30;;;;;;4954717;29;20030;-47
2021/08/24 03:04:22;;;;;;;3.63;2.35;;;26.40;50.30;;;;;;4953898;28;20128;-49
2021/08/24 03:06:53;;;;;;;2.30;1.80;;;26.40;50.40;;;;;;4952907;29;20027;-44
2021/08/24 03:09:21;;;;;;;3.60;2.03;;;26.40;50.40;;;;;;4953109;29;20058;-45
2021/08/24 03:12:16;;;;;;;4.38;3.40;;;26.40;50.40;;;;;;4952517;29;20085;-46
2021/08/24 03:14:49;;;;;;;5.70;4.20;;;26.40;50.50;;;;;;4953363;29;20031;-48
2021/08/24 03:17:25;;;;;;;3.88;3.33;;;26.50;51.00;;;;;;4951528;29;20078;-46
2021/08/24 03:19:53;;;;;;;11.82;10.52;;;26.60;50.40;;;;;;4954195;29;20050;-49
2021/08/24 03:22:20;;;;;;;7.50;6.70;;;26.60;50.20;;;;;;4951976;29;20065;-48
2021/08/24 03:24:46;;;;;;;5.65;4.40;;;26.70;50.10;;;;;;4952406;29;20034;-47
2021/08/24 03:27:12;;;;;;;4.20;3.00;;;26.70;50.00;;;;;;4951699;29;20465;-50
2021/08/24 03:29:38;;;;;;;3.55;2.28;;;26.80;49.90;;;;;;4953259;29;20031;-44
2021/08/24 03:32:06;;;;;;;4.07;2.38;;;26.80;49.80;;;;;;4953436;29;20065;-49
2021/08/24 03:34:31;;;;;;;2.40;1.80;;;26.80;49.60;;;;;;4953032;29;20373;-50
2021/08/24 03:37:00;;;;;;;2.80;2.00;;;26.80;49.50;;;;;;4953213;29;20019;-48
2021/08/24 03:39:27;;;;;;;3.88;1.90;;;26.90;49.50;;;;;;4952118;29;20054;-45
2021/08/24 03:41:53;;;;;;;3.95;1.73;;;26.90;49.30;;;;;;4953397;29;20384;-46
2021/08/24 03:44:18;;;;;;;1.95;1.52;;;26.90;49.20;;;;;;4953647;29;20035;-47
2021/08/24 03:46:44;;;;;;;3.13;1.90;;;27.00;49.30;;;;;;4953939;29;20031;-46
2021/08/24 03:49:10;;;;;;;2.00;1.60;;;27.00;49.10;;;;;;4953633;29;20031;-48
2021/08/24 03:51:35;;;;;;;2.45;1.83;;;27.00;49.10;;;;;;4952818;29;20039;-49
2021/08/24 03:54:01;;;;;;;3.22;1.42;;;27.00;49.00;;;;;;4953434;29;20031;-49
2021/08/24 03:56:26;;;;;;;2.60;1.63;;;27.10;49.00;;;;;;4953413;29;20475;-45
2021/08/24 03:58:52;;;;;;;2.40;1.75;;;27.10;48.90;;;;;;4954138;29;20420;-48
2021/08/24 04:01:19;;;;;;;2.97;1.65;;;27.10;48.90;;;;;;4953752;29;20031;-48
2021/08/24 04:03:44;;;;;;;3.05;1.52;;;27.10;48.80;;;;;;4953955;29;20062;-52
2021/08/24 04:06:10;;;;;;;2.50;1.75;;;27.10;48.70;;;;;;4953238;29;20058;-48
2021/08/24 04:08:37;;;;;;;2.88;2.00;;;27.20;48.70;;;;;;4953586;29;20027;-52
2021/08/24 04:11:08;;;;;;;2.03;1.40;;;27.20;48.70;;;;;;4953658;29;20473;-50
2021/08/24 04:13:34;;;;;;;2.97;1.80;;;27.20;48.60;;;;;;4952488;29;20118;-50
2021/08/24 04:16:05;;;;;;;2.05;1.45;;;27.20;48.50;;;;;;4953709;28;20023;-50
2021/08/24 04:18:30;;;;;;;5.28;1.73;;;27.20;48.50;;;;;;4957237;29;20019;-47
2021/08/24 04:20:56;;;;;;;2.53;1.55;;;27.30;48.50;;;;;;4940618;29;20027;-47
2021/08/24 04:23:23;;;;;;;2.17;1.58;;;27.20;48.40;;;;;;4957062;29;20031;-45
2021/08/24 04:25:49;;;;;;;2.97;1.85;;;27.30;48.40;;;;;;4956409;29;20091;-47
2021/08/24 04:28:15;;;;;;;4.05;2.05;;;27.30;48.40;;;;;;4955983;29;20453;-51
2021/08/24 04:30:40;;;;;;;3.25;2.20;;;27.30;48.30;;;;;;4957416;29;20509;-48
2021/08/24 04:33:06;;;;;;;4.10;1.67;;;27.30;48.30;;;;;;4956397;29;20035;-49
2021/08/24 04:35:32;;;;;;;2.35;1.73;;;27.30;48.20;;;;;;4955838;29;20027;-46
2021/08/24 04:37:58;;;;;;;2.20;1.48;;;27.30;48.20;;;;;;4957570;29;20070;-46
2021/08/24 04:40:27;;;;;;;2.00;1.52;;;27.30;48.10;;;;;;4956870;29;20440;-50
2021/08/24 04:42:53;;;;;;;1.95;1.50;;;27.30;48.10;;;;;;4957233;29;20094;-47
2021/08/24 04:45:19;;;;;;;2.95;1.80;;;27.40;48.10;;;;;;4956641;29;20481;-50
2021/08/24 04:48:03;;;;;;;2.20;1.48;;;27.40;48.00;;;;;;4957588;29;20031;-48
2021/08/24 04:50:29;;;;;;;2.85;1.90;;;27.30;48.00;;;;;;4957038;29;20027;-49
2021/08/24 04:52:54;;;;;;;1.75;1.38;;;27.40;48.50;;;;;;4957247;29;20078;-46
2021/08/24 04:55:20;;;;;;;2.70;1.75;;;27.40;47.90;;;;;;4956213;29;20138;-45
2021/08/24 04:57:46;;;;;;;2.40;1.60;;;27.40;47.80;;;;;;4955828;29;20034;-46
2021/08/24 05:00:13;;;;;;;2.47;1.65;;;27.40;47.80;;;;;;4956701;29;20023;-47
2021/08/24 05:02:38;;;;;;;1.90;1.60;;;27.40;47.70;;;;;;4956975;29;20038;-45
2021/08/24 05:05:05;;;;;;;2.45;1.40;;;27.40;47.70;;;;;;4956876;29;20031;-48
2021/08/24 05:07:31;;;;;;;3.60;1.65;;;27.40;47.60;;;;;;4956560;29;20027;-46
2021/08/24 05:09:57;;;;;;;2.47;1.50;;;27.40;47.50;;;;;;4956898;29;20035;-45
2021/08/24 05:12:22;;;;;;;2.13;1.50;;;27.40;47.50;;;;;;4939145;29;20388;-49
2021/08/24 05:14:48;;;;;;;3.55;1.60;;;27.40;47.40;;;;;;4955705;29;20023;-50
2021/08/24 05:17:14;;;;;;;2.50;1.60;;;27.50;47.50;;;;;;4954684;29;20118;-49
2021/08/24 05:19:39;;;;;;;2.08;1.42;;;27.50;47.40;;;;;;4955235;29;20085;-47
2021/08/24 05:22:05;;;;;;;2.00;1.50;;;27.40;47.40;;;;;;4956646;29;20059;-48
2021/08/24 05:24:34;;;;;;;3.10;1.55;;;27.50;47.40;;;;;;4954893;29;20410;-46
2021/08/24 05:26:59;;;;;;;2.47;1.38;;;27.50;47.30;;;;;;4956330;28;20031;-47
2021/08/24 05:29:25;;;;;;;3.50;1.60;;;27.50;47.30;;;;;;4954795;29;20130;-52
2021/08/24 05:31:51;;;;;;;3.97;1.98;;;27.50;47.20;;;;;;4956481;29;20039;-47
2021/08/24 05:34:16;;;;;;;2.45;1.80;;;27.50;47.20;;;;;;4956077;29;20031;-47
2021/08/24 05:36:42;;;;;;;2.78;1.63;;;27.50;47.20;;;;;;4955245;29;20023;-48
2021/08/24 05:39:08;;;;;;;2.42;1.50;;;27.50;47.20;;;;;;4956112;29;20027;-48
2021/08/24 05:41:33;;;;;;;3.33;1.63;;;27.50;47.20;;;;;;4954139;29;20066;-48
2021/08/24 05:43:59;;;;;;;3.42;1.58;;;27.50;47.10;;;;;;4955891;29;20031;-50
2021/08/24 05:46:25;;;;;;;3.65;1.70;;;27.50;47.10;;;;;;4955743;29;20027;-48
2021/08/24 05:48:51;;;;;;;2.50;1.60;;;27.50;47.10;;;;;;4955754;29;20035;-50
2021/08/24 05:51:19;;;;;;;2.45;1.52;;;27.50;47.10;;;;;;4955643;29;20031;-45
2021/08/24 05:53:46;;;;;;;2.80;1.40;;;27.50;47.00;;;;;;4955579;29;20027;-51
2021/08/24 05:56:18;;;;;;;5.22;2.00;;;27.50;47.00;;;;;;4955694;29;20186;-50
2021/08/24 05:58:44;;;;;;;2.92;1.67;;;27.50;46.90;;;;;;4956048;29;20401;-50
2021/08/24 06:01:21;;;;;;;1.80;1.50;;;27.50;46.90;;;;;;4954329;29;20027;-50
2021/08/24 06:03:46;;;;;;;2.17;1.40;;;27.50;46.90;;;;;;4954676;29;20027;-50
2021/08/24 06:06:27;;;;;;;4.30;1.80;;;27.60;46.90;;;;;;4955566;29;20031;-51
2021/08/24 06:08:54;;;;;;;4.30;1.70;;;27.50;46.80;;;;;;4955671;29;20465;-45
2021/08/24 06:11:29;;;;;;;2.88;1.60;;;27.60;46.80;;;;;;4955204;29;20032;-46
2021/08/24 06:13:56;;;;;;;3.13;1.42;;;27.50;46.70;;;;;;4954458;29;20369;-50
2021/08/24 06:16:22;;;;;;;6.70;1.77;;;27.50;46.90;;;;;;4954783;29;20046;-47
2021/08/24 06:18:48;;;;;;;4.43;1.70;;;27.60;46.70;;;;;;4954477;29;20458;-45
2021/08/24 06:21:15;;;;;;;3.67;1.65;;;27.50;46.30;;;;;;4955728;29;20059;-48
2021/08/24 06:23:41;;;;;;;3.70;1.75;;;27.50;46.20;;;;;;4954507;29;20459;-50
2021/08/24 06:26:07;;;;;;;4.72;1.63;;;27.50;46.20;;;;;;4955300;29;20492;-50
2021/08/24 06:28:33;;;;;;;3.75;1.63;;;27.40;46.30;;;;;;4954680;29;20429;-47
2021/08/24 06:30:59;;;;;;;3.95;1.58;;;27.30;46.30;;;;;;4954948;29;20448;-48
2021/08/24 06:33:36;;;;;;;10.88;1.90;;;27.20;46.50;;;;;;4952934;29;20031;-48
2021/08/24 06:36:03;;;;;;;7.15;1.85;;;27.10;46.60;;;;;;4953840;29;20078;-50
2021/08/24 06:38:31;;;;;;;5.68;1.90;;;27.10;46.60;;;;;;4952744;28;20035;-47
2021/08/24 06:40:58;;;;;;;3.15;1.23;;;27.10;46.60;;;;;;4955068;29;20028;-49
2021/08/24 06:43:23;;;;;;;4.40;1.40;;;27.10;46.70;;;;;;4953665;29;20046;-45
2021/08/24 06:45:49;;;;;;;5.97;1.40;;;27.00;46.70;;;;;;4954388;29;20024;-48
2021/08/24 06:48:15;;;;;;;5.40;1.40;;;27.00;46.80;;;;;;4953641;29;20050;-49
2021/08/24 06:50:40;;;;;;;4.63;1.25;;;26.90;46.80;;;;;;4954325;29;20027;-51
2021/08/24 06:53:06;;;;;;;7.78;1.85;;;26.90;46.90;;;;;;4954643;29;20122;-51
2021/08/24 06:55:32;;;;;;;5.95;1.55;;;26.90;47.10;;;;;;4953999;29;20043;-48
2021/08/24 06:58:00;;;;;;;6.88;1.50;;;26.90;47.10;;;;;;4954286;29;20050;-52
2021/08/24 07:00:27;;;;;;;8.45;1.60;;;26.90;47.10;;;;;;4950587;29;20442;-46
2021/08/24 07:02:54;;;;;;;4.57;1.48;;;26.90;47.30;;;;;;4953429;29;20031;-46
2021/08/24 07:05:27;;;;;;;6.25;1.70;;;26.90;47.10;;;;;;4953070;29;20081;-47
2021/08/24 07:07:54;;;;;;;3.92;1.10;;;26.90;47.10;;;;;;4954126;29;20027;-49
2021/08/24 07:10:21;;;;;;;3.30;1.50;;;26.90;47.10;;;;;;4954436;29;20027;-46
2021/08/24 07:12:47;;;;;;;9.77;1.25;;;26.90;47.10;;;;;;4953929;29;20031;-46
2021/08/24 07:15:15;;;;;;;3.92;1.20;;;26.90;47.10;;;;;;4954116;29;20070;-47
2021/08/24 07:17:41;;;;;;;3.67;1.30;;;26.90;47.10;;;;;;4953754;29;20052;-51
2021/08/24 07:20:11;;;;;;;2.67;1.52;;;26.90;47.10;;;;;;4953862;29;20058;-46
2021/08/24 07:22:38;;;;;;;2.78;1.00;;;26.80;47.10;;;;;;4953628;29;20527;-47
2021/08/24 07:25:06;;;;;;;2.70;1.40;;;26.90;47.20;;;;;;4954030;29;20031;-47
2021/08/24 07:27:32;;;;;;;5.57;1.50;;;26.80;47.20;;;;;;4953136;29;20476;-49
2021/08/24 07:29:57;;;;;;;5.72;1.30;;;26.80;47.20;;;;;;4953560;29;20031;-50
2021/08/24 07:32:23;;;;;;;5.40;1.50;;;26.80;47.30;;;;;;4953121;29;20027;-51
2021/08/24 07:34:49;;;;;;;5.00;1.27;;;26.80;47.30;;;;;;4953620;29;20073;-49
2021/08/24 07:37:15;;;;;;;6.35;1.45;;;26.80;47.40;;;;;;4953753;29;20409;-49
2021/08/24 07:39:40;;;;;;;6.43;1.60;;;26.80;47.50;;;;;;4953064;29;20059;-48
2021/08/24 07:42:06;;;;;;;5.28;1.35;;;26.80;47.50;;;;;;4953402;29;20034;-46
2021/08/24 07:44:33;;;;;;;3.53;1.35;;;26.80;47.60;;;;;;4951960;29;20102;-46
2021/08/24 07:47:00;;;;;;;7.22;1.55;;;26.80;47.60;;;;;;4953538;29;20058;-45
2021/08/24 07:49:27;;;;;;;5.93;1.60;;;26.80;47.60;;;;;;4951480;28;20031;-46
2021/08/24 07:51:56;;;;;;;6.78;1.60;;;26.80;47.60;;;;;;4953536;29;20027;-49
2021/08/24 07:54:23;;;;;;;8.15;1.80;;;26.90;48.40;;;;;;4953237;29;20114;-47
2021/08/24 07:56:49;;;;;;;3.92;1.65;;;26.90;47.90;;;;;;4952340;29;20023;-47
2021/08/24 07:59:15;;;;;;;4.60;1.23;;;26.90;47.80;;;;;;4952168;29;20050;-48
2021/08/24 08:01:40;;;;;;;4.85;1.50;;;26.90;47.80;;;;;;4952429;29;20054;-47
2021/08/24 08:04:06;;;;;;;4.35;1.30;;;26.90;47.70;;;;;;4951793;29;20437;-52
2021/08/24 08:06:32;;;;;;;6.05;1.38;;;26.90;47.80;;;;;;4951416;29;20062;-52
2021/08/24 08:08:57;;;;;;;5.40;1.30;;;26.90;47.80;;;;;;4952132;29;20436;-48
2021/08/24 08:11:24;;;;;;;4.47;1.38;;;26.90;47.80;;;;;;4951853;29;20392;-49
2021/08/24 08:13:50;;;;;;;4.20;1.10;;;26.90;47.80;;;;;;4954347;29;20059;-47
2021/08/24 08:16:17;;;;;;;10.13;1.48;;;26.90;47.80;;;;;;4953427;29;20030;-49
2021/08/24 08:18:43;;;;;;;7.85;1.45;;;26.90;48.20;;;;;;4952673;29;20421;-47
2021/08/24 08:21:10;;;;;;;8.35;1.70;;;27.00;48.10;;;;;;4952083;29;20038;-52
2021/08/24 08:23:35;;;;;;;5.38;1.70;;;27.00;48.00;;;;;;4951584;29;20184;-49
2021/08/24 08:26:01;;;;;;;10.02;1.60;;;27.00;47.90;;;;;;4953166;29;20457;-47
2021/08/24 08:28:27;;;;;;;7.10;1.60;;;27.00;47.80;;;;;;4951461;29;20066;-51
2021/08/24 08:30:53;;;;;;;4.68;1.20;;;27.10;47.80;;;;;;4952163;29;20037;-46
2021/08/24 08:33:18;;;;;;;4.00;1.50;;;27.00;47.60;;;;;;4951746;29;20453;-48
2021/08/24 08:35:44;;;;;;;11.05;1.30;;;27.00;47.80;;;;;;4951291;29;20385;-49
2021/08/24 08:38:10;;;;;;;3.92;1.17;;;27.00;47.70;;;;;;4951892;29;20122;-49
2021/08/24 08:40:58;;;;;;;3.35;1.40;;;27.00;47.70;;;;;;4951105;29;20054;-49
2021/08/24 08:43:44;;;;;;;5.22;1.30;;;27.00;47.80;;;;;;4935375;29;20034;-49
2021/08/24 08:46:30;;;;;;;4.55;1.20;;;27.00;47.60;;;;;;4952400;29;20054;-44
2021/08/24 08:49:07;;;;;;;4.05;1.10;;;27.00;48.30;;;;;;4952286;29;20023;-43
2021/08/24 08:51:33;;;;;;;6.88;1.63;;;27.00;47.70;;;;;;4950055;29;20031;-46
2021/08/24 08:54:30;;;;;;;3.28;1.13;;;27.10;47.80;;;;;;4951784;29;20066;-46
2021/08/24 08:56:56;;;;;;;2.30;1.17;;;27.00;47.80;;;;;;4952302;29;20110;-47
2021/08/24 08:59:31;;;;;;;4.43;1.50;;;27.10;47.80;;;;;;4952349;29;20114;-45
2021/08/24 09:02:20;;;;;;;3.35;1.30;;;27.00;47.80;;;;;;4953526;28;20031;-45
2021/08/24 09:04:47;;;;;;;5.03;1.20;;;27.00;47.80;;;;;;4948635;29;20255;-49
2021/08/24 09:07:52;;;;;;;9.25;1.77;;;27.10;47.80;;;;;;4955775;29;20114;-45
2021/08/24 09:10:40;;;;;;;4.28;1.38;;;27.00;47.80;;;;;;4953877;29;20047;-53
2021/08/24 09:13:13;;;;;;;8.30;1.70;;;27.10;47.80;;;;;;4954483;29;20039;-49
2021/08/24 09:15:48;;;;;;;;;;;27.10;47.70;;;;;;4955264;29;20031;-44
2021/08/24 09:18:43;;;;;;;5.43;2.10;;;27.20;47.70;;;;;;4938036;29;19957;-47
2021/08/24 09:21:13;;;;;;;12.73;2.50;;;27.10;47.80;;;;;;4955853;29;20027;-47
2021/08/24 09:23:39;;;;;;;9.73;2.28;;;27.10;47.90;;;;;;4954139;29;20047;-47
2021/08/24 09:26:07;;;;;;;10.48;2.10;;;27.10;48.10;;;;;;4954324;29;20409;-47
2021/08/24 09:28:54;;;;;;;10.10;2.00;;;27.20;48.40;;;;;;4953786;29;20529;-49
2021/08/24 09:31:22;;;;;;;6.53;1.73;;;27.10;48.70;;;;;;4953461;29;20035;-52
2021/08/24 09:33:49;;;;;;;9.82;1.98;;;27.20;48.80;;;;;;4952424;29;20034;-51
2021/08/24 09:36:17;;;;;;;7.90;1.50;;;27.10;48.90;;;;;;4953785;29;20547;-48
2021/08/24 09:38:58;;;;;;;10.60;1.60;;;27.20;49.10;;;;;;4953419;29;20036;-48
2021/08/24 09:41:25;;;;;;;14.15;1.88;;;27.10;49.40;;;;;;4954834;29;20058;-46
2021/08/24 09:43:54;;;;;;;11.40;2.05;;;27.20;49.30;;;;;;4954961;29;20056;-50
2021/08/24 09:46:20;;;;;;;8.20;2.65;;;27.20;49.10;;;;;;4954161;29;20023;-49
2021/08/24 09:49:00;;;;;;;9.23;4.85;;;27.20;48.90;;;;;;4954358;29;20023;-53
2021/08/24 09:51:38;;;;;;;6.78;3.40;;;27.30;49.20;;;;;;4955096;29;20017;-50
2021/08/24 09:54:28;;;;;;;5.22;2.50;;;27.20;49.20;;;;;;4955089;29;20034;-50
2021/08/24 09:57:26;;;;;;;3.92;2.13;;;27.20;49.40;;;;;;4954142;29;20138;-52
2021/08/24 09:59:57;;;;;;;5.75;2.17;;;27.20;50.00;;;;;;4951695;29;20062;-48
2021/08/24 10:02:40;;;;;;;4.18;1.88;;;27.20;49.30;;;;;;4953145;29;20027;-48
2021/08/24 10:05:28;;;;;;;3.38;1.80;;;27.20;49.50;;;;;;4953666;29;20031;-46
2021/08/24 10:07:58;;;;;;;4.15;1.33;;;27.30;49.50;;;;;;4948017;29;20074;-52
2021/08/24 10:10:27;;;;;;;2.60;1.30;;;27.30;49.40;;;;;;4952849;29;20027;-50
2021/08/24 10:12:54;;;;;;;2.72;1.20;;;27.30;49.30;;;;;;4952949;28;20035;-51
2021/08/24 10:15:23;;;;;;;2.60;1.30;;;27.30;49.10;;;;;;4952770;29;20027;-52
2021/08/24 10:18:14;;;;;;;4.45;1.40;;;27.40;49.60;;;;;;4953205;29;20031;-50
2021/08/24 10:21:09;;;;;;;3.20;1.20;;;27.30;49.60;;;;;;4952819;29;20035;-51
2021/08/24 10:24:04;;;;;;;1.80;1.10;;;27.40;49.60;;;;;;4952479;29;20255;-47
2021/08/24 10:26:34;;;;;;;2.92;1.52;;;27.40;49.40;;;;;;4951786;29;20035;-50
2021/08/24 10:29:04;;;;;;;3.53;1.52;;;27.40;49.10;;;;;;4953310;29;20039;-49
2021/08/24 10:31:42;;;;;;;3.63;1.45;;;27.40;49.20;;;;;;4953867;29;20066;-54
2021/08/24 10:34:18;;;;;;;11.30;1.60;;;27.30;49.50;;;;;;4952474;29;20054;-52
2021/08/24 10:36:47;;;;;;;5.03;1.65;;;27.30;49.70;;;;;;4952730;29;20097;-49
2021/08/24 10:39:22;;;;;;;8.60;1.58;;;27.30;49.70;;;;;;4936716;29;20023;-50
2021/08/24 10:42:08;;;;;;;2.60;1.17;;;27.30;50.30;;;;;;4952794;29;20038;-51
2021/08/24 10:44:50;;;;;;;12.18;1.30;;;27.30;49.50;;;;;;4944780;29;20067;-52
2021/08/24 10:47:28;;;;;;;5.90;1.23;;;27.40;49.60;;;;;;4952154;29;20030;-50
2021/08/24 10:49:57;;;;;;;7.18;2.88;;;27.40;49.30;;;;;;4953852;29;20447;-49
2021/08/24 10:53:06;;;;;;;10.98;3.50;;;27.50;49.30;;;;;;4952033;29;20460;-49
2021/08/24 10:55:40;;;;;;;4.63;3.42;;;27.50;49.40;;;;;;4938568;29;20159;-48
2021/08/24 10:58:35;;;;;;;6.75;2.40;;;27.50;49.20;;;;;;4952484;29;20027;-53
2021/08/24 11:01:03;;;;;;;2.97;2.03;;;27.50;49.10;;;;;;4952764;29;20031;-49
2021/08/24 11:03:49;;;;;;;4.57;1.77;;;27.60;49.10;;;;;;4952934;29;20030;-48
2021/08/24 11:06:53;;;;;;;7.03;1.98;;;27.60;49.00;;;;;;4936362;29;20122;-52
2021/08/24 11:09:25;;;;;;;5.82;1.52;;;27.60;48.80;;;;;;4934576;29;20039;-49
2021/08/24 11:12:11;;;;;;;12.65;2.17;;;27.70;48.80;;;;;;4954247;29;20425;-48
2021/08/24 11:15:03;;;;;;;3.90;1.60;;;27.70;48.90;;;;;;4935820;29;20038;-49
2021/08/24 11:17:49;;;;;;;2.78;1.48;;;27.70;48.90;;;;;;4951874;29;20051;-50
2021/08/24 11:20:28;;;;;;;11.40;2.00;;;27.80;48.80;;;;;;4936081;29;20043;-51
2021/08/24 11:23:34;;;;;;;8.93;1.65;;;27.80;48.70;;;;;;4953050;29;20054;-46
2021/08/24 11:26:20;;;;;;;5.70;1.73;;;27.80;48.70;;;;;;4951853;28;20066;-49
2021/08/24 11:29:05;;;;;;;6.60;1.75;;;27.80;48.40;;;;;;4952571;29;20480;-45
2021/08/24 11:31:48;;;;;;;3.83;1.50;;;27.90;48.40;;;;;;4952587;29;20102;-47
2021/08/24 11:34:25;;;;;;;3.15;1.10;;;27.80;48.20;;;;;;4952584;29;20090;-45
2021/08/24 11:36:56;;;;;;;3.92;1.35;;;27.90;48.00;;;;;;4953139;29;20027;-50
2021/08/24 11:39:29;;;;;;;3.42;1.35;;;27.90;48.00;;;;;;4952409;29;20046;-50
2021/08/24 11:42:02;;;;;;;3.13;1.40;;;27.90;48.00;;;;;;4951104;29;20123;-48
2021/08/24 11:44:51;;;;;;;2.80;1.40;;;27.90;47.90;;;;;;4950787;29;20129;-48
2021/08/24 11:47:23;;;;;;;4.63;1.38;;;27.90;47.60;;;;;;4953302;29;20110;-49
2021/08/24 11:49:54;;;;;;;6.15;1.17;;;27.90;47.50;;;;;;4936278;29;20046;-50
2021/08/24 11:52:38;;;;;;;5.93;1.50;;;27.90;47.40;;;;;;4952326;29;20031;-47
2021/08/24 11:55:24;;;;;;;2.35;1.10;;;27.80;47.60;;;;;;4932734;29;20054;-48
2021/08/24 11:58:14;;;;;;;4.05;1.20;;;27.80;47.30;;;;;;4934156;29;20085;-49
2021/08/24 12:00:40;;;;;;;6.05;1.13;;;27.80;47.30;;;;;;4933763;29;20059;-52
2021/08/24 12:03:12;;;;;;;3.25;1.10;;;27.80;47.20;;;;;;4933277;29;20102;-48
2021/08/24 12:06:10;;;;;;;1.58;0.82;;;27.80;47.20;;;;;;4947975;29;20043;-52
2021/08/24 12:08:49;;;;;;;1.50;0.85;;;27.70;47.00;;;;;;4930097;29;20119;-48
2021/08/24 12:11:19;;;;;;;2.72;1.00;;;27.70;47.00;;;;;;4948047;29;20520;-49
2021/08/24 12:13:55;;;;;;;2.22;1.00;;;27.70;46.90;;;;;;4947365;29;20038;-49
2021/08/24 12:16:21;;;;;;;1.38;0.70;;;27.60;46.90;;;;;;4932843;29;20051;-46
2021/08/24 12:18:49;;;;;;;3.17;0.90;;;27.60;46.70;;;;;;4932592;29;20417;-51
2021/08/24 12:21:34;;;;;;;1.65;0.82;;;27.60;46.80;;;;;;4947622;29;20024;-48
2021/08/24 12:24:26;;;;;;;1.42;0.60;;;27.60;47.10;;;;;;4933176;29;20465;-48
2021/08/24 12:27:12;;;;;;;3.75;1.83;;;27.50;46.90;;;;;;4947563;29;20035;-51
2021/08/24 12:29:39;;;;;;;9.65;3.83;;;27.60;47.10;;;;;;4921131;29;20040;-46
2021/08/24 12:32:05;;;;;;;9.32;3.17;;;27.60;47.00;;;;;;4932873;29;20042;-48
2021/08/24 12:34:33;;;;;;;7.75;2.80;;;27.60;47.00;;;;;;4946047;29;20066;-52
2021/08/24 12:37:19;;;;;;;5.57;2.28;;;27.60;47.00;;;;;;4930046;29;20028;-47
2021/08/24 12:39:49;;;;;;;4.82;1.58;;;27.60;46.80;;;;;;4937246;29;20294;-47
2021/08/24 12:42:26;;;;;;;3.75;1.83;;;27.60;46.70;;;;;;4951190;29;20028;-51
2021/08/24 12:45:23;;;;;;;15.25;1.80;;;27.60;46.60;;;;;;4936845;29;20114;-53
2021/08/24 12:48:11;;;;;;;3.97;1.55;;;27.60;46.70;;;;;;4933514;29;20078;-53
2021/08/24 12:50:37;;;;;;;6.60;1.50;;;27.70;46.70;;;;;;4936041;29;20028;-46
2021/08/24 12:53:28;;;;;;;3.55;1.20;;;27.70;46.50;;;;;;4950635;29;20050;-43
2021/08/24 12:55:56;;;;;;;3.22;0.80;;;27.70;46.60;;;;;;4950824;29;20070;-45
2021/08/24 12:58:27;;;;;;;6.55;1.00;;;27.70;46.10;;;;;;4951124;29;20126;-44
2021/08/24 13:01:25;;;;;;;4.82;0.98;;;27.50;46.10;;;;;;4950400;29;20071;-46
2021/08/24 13:03:54;;;;;;;4.57;1.30;;;27.50;46.50;;;;;;4951085;29;20390;-43
2021/08/24 13:06:21;;;;;;;3.60;1.60;;;27.50;46.40;;;;;;4951160;29;20032;-47
2021/08/24 13:08:56;;;;;;;3.35;1.08;;;27.50;46.50;;;;;;4950370;29;20043;-46
2021/08/24 13:11:26;;;;;;;4.97;2.03;;;27.40;46.90;;;;;;4935483;29;20481;-43
2021/08/24 13:14:28;;;;;;;3.00;1.75;;;27.40;46.30;;;;;;4950802;29;20043;-47
2021/08/24 13:16:56;;;;;;;4.18;1.52;;;27.30;46.50;;;;;;4950815;29;20031;-47
2021/08/24 13:19:28;;;;;;;6.03;1.88;;;27.30;46.60;;;;;;4950805;29;20039;-46
2021/08/24 13:22:01;;;;;;;6.05;1.50;;;27.30;46.90;;;;;;4950970;29;20031;-48